DAL593 KMEM-KOWB
Flight info
| Callsign | DAL593 |
|---|---|
| Flight time | 0h 39m |
| Altitude | 29000 |
| Route | CRSON7 HUMMS |
| Aircraft | A319/M-SDE3FGHIRWY/LB1 |
Departure
| Time | 2026-05-08 03:09 |
|---|---|
| Airport | Memphis International Airport (KMEM) |
Arrival
| Time | 2026-05-08 03:48 |
|---|---|
| Airport | Owensboro Daviess County Airport (KOWB) |
| Time | Latitude | Longitude | Altitude | Speed | Heading |
|---|---|---|---|---|---|
| 2026-05-08 02:44 | 35.04291 | -89.98116 | 331 ft | 0 kts | 269° |
| 2026-05-08 02:55 | 35.04291 | -89.98079 | 328 ft | 3 kts | 269° |
| 2026-05-08 02:55 | 35.04293 | -89.98056 | 327 ft | 3 kts | 235° |
| 2026-05-08 02:56 | 35.04306 | -89.98042 | 327 ft | 2 kts | 195° |
| 2026-05-08 02:56 | 35.04320 | -89.98038 | 326 ft | 2 kts | 194° |
| 2026-05-08 02:56 | 35.04323 | -89.98037 | 326 ft | 0 kts | 194° |
| 2026-05-08 03:03 | 35.04321 | -89.98037 | 327 ft | 2 kts | 187° |
| 2026-05-08 03:03 | 35.04264 | -89.98017 | 336 ft | 13 kts | 141° |
| 2026-05-08 03:03 | 35.04197 | -89.97922 | 330 ft | 15 kts | 110° |
| 2026-05-08 03:04 | 35.04153 | -89.97839 | 328 ft | 17 kts | 180° |
| 2026-05-08 03:04 | 35.04008 | -89.97849 | 328 ft | 14 kts | 188° |
| 2026-05-08 03:04 | 35.03907 | -89.97841 | 328 ft | 1 kts | 184° |
| 2026-05-08 03:04 | 35.03838 | -89.97835 | 329 ft | 19 kts | 175° |
| 2026-05-08 03:05 | 35.03669 | -89.97825 | 329 ft | 30 kts | 178° |
| 2026-05-08 03:05 | 35.03488 | -89.97822 | 328 ft | 24 kts | 180° |
| 2026-05-08 03:05 | 35.03334 | -89.97828 | 329 ft | 20 kts | 180° |
| 2026-05-08 03:05 | 35.03209 | -89.97818 | 328 ft | 16 kts | 180° |
| 2026-05-08 03:06 | 35.03111 | -89.97822 | 328 ft | 12 kts | 180° |
| 2026-05-08 03:06 | 35.03040 | -89.97822 | 328 ft | 8 kts | 180° |
| 2026-05-08 03:06 | 35.02968 | -89.97823 | 330 ft | 22 kts | 180° |
| 2026-05-08 03:06 | 35.02846 | -89.97815 | 330 ft | 15 kts | 176° |
| 2026-05-08 03:07 | 35.02740 | -89.97811 | 327 ft | 16 kts | 179° |
| 2026-05-08 03:07 | 35.02631 | -89.97808 | 330 ft | 14 kts | 178° |
| 2026-05-08 03:07 | 35.02540 | -89.97806 | 328 ft | 13 kts | 179° |
| 2026-05-08 03:07 | 35.02435 | -89.97796 | 328 ft | 14 kts | 158° |
| 2026-05-08 03:08 | 35.02414 | -89.97728 | 328 ft | 9 kts | 88° |
| 2026-05-08 03:08 | 35.02412 | -89.97656 | 326 ft | 10 kts | 89° |
| 2026-05-08 03:08 | 35.02431 | -89.97572 | 324 ft | 10 kts | 39° |
| 2026-05-08 03:08 | 35.02496 | -89.97558 | 323 ft | 10 kts | 359° |
| 2026-05-08 03:09 | 35.02669 | -89.97561 | 324 ft | 60 kts | 360° |
| 2026-05-08 03:09 | 35.03360 | -89.97573 | 323 ft | 134 kts | 359° |
| 2026-05-08 03:09 | 35.04418 | -89.97592 | 684 ft | 157 kts | 359° |
| 2026-05-08 03:09 | 35.05561 | -89.97611 | 1200 ft | 170 kts | 359° |
| 2026-05-08 03:10 | 35.06723 | -89.97453 | 1983 ft | 168 kts | 11° |
| 2026-05-08 03:10 | 35.07955 | -89.97178 | 2426 ft | 191 kts | 11° |
| 2026-05-08 03:10 | 35.09327 | -89.96873 | 2885 ft | 211 kts | 10° |
| 2026-05-08 03:10 | 35.10854 | -89.96553 | 3285 ft | 238 kts | 10° |
| 2026-05-08 03:11 | 35.12566 | -89.96201 | 3917 ft | 258 kts | 9° |
| 2026-05-08 03:11 | 35.14368 | -89.95830 | 4688 ft | 266 kts | 8° |
| 2026-05-08 03:11 | 35.16198 | -89.95448 | 5105 ft | 268 kts | 8° |
| 2026-05-08 03:11 | 35.18031 | -89.95058 | 6219 ft | 268 kts | 7° |
| 2026-05-08 03:12 | 35.19872 | -89.94666 | 7257 ft | 270 kts | 6° |
| 2026-05-08 03:12 | 35.21709 | -89.94070 | 8205 ft | 279 kts | 17° |
| 2026-05-08 03:12 | 35.23434 | -89.92892 | 9153 ft | 291 kts | 32° |
| 2026-05-08 03:12 | 35.25013 | -89.91297 | 10083 ft | 297 kts | 34° |
| 2026-05-08 03:13 | 35.26662 | -89.89619 | 10519 ft | 321 kts | 34° |
| 2026-05-08 03:13 | 35.28450 | -89.87817 | 10843 ft | 345 kts | 34° |
| 2026-05-08 03:13 | 35.30372 | -89.85886 | 11118 ft | 368 kts | 34° |
| 2026-05-08 03:13 | 35.32388 | -89.83852 | 11622 ft | 381 kts | 35° |
| 2026-05-08 03:14 | 35.34447 | -89.81756 | 12297 ft | 388 kts | 35° |
| 2026-05-08 03:14 | 35.36537 | -89.79615 | 12979 ft | 395 kts | 35° |
| 2026-05-08 03:14 | 35.38662 | -89.77437 | 13663 ft | 402 kts | 35° |
| 2026-05-08 03:14 | 35.40827 | -89.75221 | 14294 ft | 408 kts | 34° |
| 2026-05-08 03:15 | 35.43016 | -89.72985 | 14931 ft | 413 kts | 34° |
| 2026-05-08 03:15 | 35.45211 | -89.70746 | 15567 ft | 418 kts | 34° |
| 2026-05-08 03:15 | 35.47452 | -89.68460 | 15902 ft | 421 kts | 34° |
| 2026-05-08 03:15 | 35.49712 | -89.66149 | 16000 ft | 421 kts | 34° |
| 2026-05-08 03:16 | 35.51966 | -89.63840 | 16019 ft | 421 kts | 34° |
| 2026-05-08 03:16 | 35.54219 | -89.61534 | 16016 ft | 421 kts | 34° |
| 2026-05-08 03:16 | 35.56470 | -89.59227 | 16015 ft | 421 kts | 34° |
| 2026-05-08 03:16 | 35.58716 | -89.56922 | 16021 ft | 421 kts | 34° |
| 2026-05-08 03:17 | 35.60986 | -89.54646 | 16014 ft | 418 kts | 31° |
| 2026-05-08 03:17 | 35.63413 | -89.52721 | 16018 ft | 415 kts | 25° |
| 2026-05-08 03:17 | 35.65879 | -89.50872 | 16016 ft | 415 kts | 25° |
| 2026-05-08 03:17 | 35.68348 | -89.49026 | 16022 ft | 414 kts | 25° |
| 2026-05-08 03:18 | 35.70809 | -89.47190 | 16018 ft | 414 kts | 25° |
| 2026-05-08 03:18 | 35.72441 | -89.45975 | 16020 ft | 414 kts | 25° |
| 2026-05-08 03:18 | 35.74906 | -89.44139 | 16020 ft | 414 kts | 25° |
| 2026-05-08 03:18 | 35.77364 | -89.42306 | 16018 ft | 414 kts | 25° |
| 2026-05-08 03:19 | 35.79829 | -89.40467 | 16019 ft | 414 kts | 25° |
| 2026-05-08 03:19 | 35.83086 | -89.38037 | 16018 ft | 413 kts | 25° |
| 2026-05-08 03:19 | 35.84746 | -89.36795 | 16020 ft | 413 kts | 25° |
| 2026-05-08 03:19 | 35.87204 | -89.34956 | 16020 ft | 413 kts | 25° |
| 2026-05-08 03:20 | 35.89675 | -89.33106 | 16447 ft | 417 kts | 25° |
| 2026-05-08 03:20 | 35.92168 | -89.31236 | 17172 ft | 420 kts | 25° |
| 2026-05-08 03:20 | 35.94647 | -89.29376 | 17849 ft | 424 kts | 25° |
| 2026-05-08 03:20 | 35.97176 | -89.27480 | 18483 ft | 428 kts | 25° |
| 2026-05-08 03:21 | 35.99734 | -89.25559 | 19034 ft | 432 kts | 25° |
| 2026-05-08 03:21 | 36.02309 | -89.23621 | 19571 ft | 436 kts | 25° |
| 2026-05-08 03:21 | 36.04910 | -89.21661 | 20102 ft | 439 kts | 24° |
| 2026-05-08 03:21 | 36.07535 | -89.19683 | 20620 ft | 443 kts | 24° |
| 2026-05-08 03:22 | 36.10182 | -89.17690 | 21124 ft | 447 kts | 24° |
| 2026-05-08 03:22 | 36.12849 | -89.15679 | 21625 ft | 451 kts | 24° |
| 2026-05-08 03:22 | 36.15541 | -89.13647 | 22115 ft | 455 kts | 24° |
| 2026-05-08 03:22 | 36.18256 | -89.11597 | 22587 ft | 459 kts | 24° |
| 2026-05-08 03:23 | 36.20993 | -89.09528 | 23042 ft | 462 kts | 24° |
| 2026-05-08 03:23 | 36.23749 | -89.07442 | 23492 ft | 466 kts | 23° |
| 2026-05-08 03:23 | 36.26498 | -89.05359 | 23892 ft | 470 kts | 23° |
| 2026-05-08 03:23 | 36.29295 | -89.03239 | 24238 ft | 474 kts | 23° |
| 2026-05-08 03:24 | 36.32117 | -89.01096 | 24594 ft | 477 kts | 23° |
| 2026-05-08 03:24 | 36.34915 | -88.98828 | 24934 ft | 488 kts | 28° |
| 2026-05-08 03:24 | 36.37508 | -88.96023 | 25271 ft | 501 kts | 38° |
| 2026-05-08 03:24 | 36.39948 | -88.92894 | 25600 ft | 506 kts | 38° |
| 2026-05-08 03:25 | 36.42400 | -88.89739 | 25917 ft | 510 kts | 38° |
| 2026-05-08 03:25 | 36.44873 | -88.86561 | 26235 ft | 513 kts | 38° |
| 2026-05-08 03:25 | 36.47365 | -88.83365 | 26545 ft | 517 kts | 38° |
| 2026-05-08 03:25 | 36.49876 | -88.80145 | 26848 ft | 520 kts | 38° |
| 2026-05-08 03:26 | 36.52399 | -88.76906 | 27148 ft | 524 kts | 38° |
| 2026-05-08 03:26 | 36.54943 | -88.73638 | 27458 ft | 527 kts | 38° |
| 2026-05-08 03:26 | 36.57502 | -88.70351 | 27756 ft | 530 kts | 38° |
| 2026-05-08 03:26 | 36.60071 | -88.67044 | 28050 ft | 533 kts | 38° |
| 2026-05-08 03:27 | 36.62654 | -88.63707 | 28353 ft | 536 kts | 38° |
| 2026-05-08 03:27 | 36.65244 | -88.60352 | 28708 ft | 538 kts | 38° |
| 2026-05-08 03:27 | 36.67837 | -88.56990 | 29035 ft | 538 kts | 38° |
| 2026-05-08 03:28 | 36.73014 | -88.50268 | 29109 ft | 536 kts | 38° |
| 2026-05-08 03:28 | 36.78175 | -88.43558 | 29108 ft | 535 kts | 38° |
| 2026-05-08 03:29 | 36.83322 | -88.36857 | 29033 ft | 535 kts | 38° |
| 2026-05-08 03:29 | 36.85900 | -88.33501 | 28694 ft | 541 kts | 38° |
| 2026-05-08 03:29 | 36.88491 | -88.30137 | 28427 ft | 544 kts | 38° |
| 2026-05-08 03:29 | 36.91094 | -88.26731 | 27364 ft | 528 kts | 39° |
| 2026-05-08 03:30 | 36.96202 | -88.20038 | 23391 ft | 535 kts | 39° |
| 2026-05-08 03:30 | 37.01186 | -88.13473 | 20990 ft | 502 kts | 40° |
| 2026-05-08 03:31 | 37.05810 | -88.07336 | 18533 ft | 478 kts | 40° |
| 2026-05-08 03:31 | 37.10344 | -88.01419 | 15986 ft | 457 kts | 41° |
| 2026-05-08 03:32 | 37.12475 | -87.98632 | 15182 ft | 440 kts | 41° |
| 2026-05-08 03:32 | 37.14558 | -87.95893 | 14437 ft | 433 kts | 41° |
| 2026-05-08 03:32 | 37.16639 | -87.93147 | 14123 ft | 436 kts | 42° |
| 2026-05-08 03:32 | 37.18717 | -87.90353 | 13971 ft | 437 kts | 43° |
| 2026-05-08 03:33 | 37.20771 | -87.87546 | 14018 ft | 437 kts | 43° |
| 2026-05-08 03:33 | 37.22818 | -87.84725 | 14013 ft | 437 kts | 43° |
| 2026-05-08 03:33 | 37.24862 | -87.81903 | 14013 ft | 437 kts | 43° |
| 2026-05-08 03:33 | 37.26910 | -87.79083 | 14012 ft | 437 kts | 43° |
| 2026-05-08 03:34 | 37.28959 | -87.76274 | 14014 ft | 436 kts | 43° |
| 2026-05-08 03:34 | 37.31011 | -87.73467 | 14007 ft | 436 kts | 43° |
| 2026-05-08 03:34 | 37.33066 | -87.70656 | 13995 ft | 436 kts | 43° |
| 2026-05-08 03:34 | 37.35118 | -87.67844 | 14007 ft | 436 kts | 43° |
| 2026-05-08 03:35 | 37.37168 | -87.65033 | 13995 ft | 436 kts | 43° |
| 2026-05-08 03:35 | 37.39218 | -87.62221 | 14012 ft | 436 kts | 43° |
| 2026-05-08 03:35 | 37.41266 | -87.59412 | 14005 ft | 436 kts | 43° |
| 2026-05-08 03:35 | 37.43314 | -87.56598 | 14007 ft | 436 kts | 43° |
| 2026-05-08 03:36 | 37.45443 | -87.53666 | 14003 ft | 436 kts | 43° |
| 2026-05-08 03:36 | 37.47461 | -87.50883 | 14001 ft | 436 kts | 43° |
| 2026-05-08 03:36 | 37.49520 | -87.48036 | 13536 ft | 429 kts | 43° |
| 2026-05-08 03:36 | 37.51502 | -87.45286 | 12714 ft | 414 kts | 43° |
| 2026-05-08 03:37 | 37.53337 | -87.42726 | 12498 ft | 384 kts | 43° |
| 2026-05-08 03:37 | 37.55053 | -87.40327 | 12368 ft | 355 kts | 43° |
| 2026-05-08 03:37 | 37.56651 | -87.38100 | 12232 ft | 330 kts | 42° |
| 2026-05-08 03:37 | 37.58363 | -87.36238 | 11194 ft | 325 kts | 24° |
| 2026-05-08 03:38 | 37.60483 | -87.35320 | 10115 ft | 324 kts | 7° |
| 2026-05-08 03:38 | 37.62624 | -87.34846 | 9918 ft | 299 kts | 6° |
| 2026-05-08 03:38 | 37.64600 | -87.34430 | 9707 ft | 279 kts | 6° |
| 2026-05-08 03:38 | 37.66487 | -87.34030 | 9190 ft | 272 kts | 6° |
| 2026-05-08 03:39 | 37.68341 | -87.33638 | 8560 ft | 269 kts | 6° |
| 2026-05-08 03:39 | 37.70184 | -87.33249 | 7902 ft | 267 kts | 6° |
| 2026-05-08 03:39 | 37.72016 | -87.32863 | 7305 ft | 268 kts | 6° |
| 2026-05-08 03:39 | 37.73853 | -87.32477 | 6895 ft | 267 kts | 6° |
| 2026-05-08 03:40 | 37.75615 | -87.31741 | 6473 ft | 271 kts | 28° |
| 2026-05-08 03:40 | 37.76959 | -87.30055 | 6023 ft | 277 kts | 52° |
| 2026-05-08 03:40 | 37.78007 | -87.28005 | 5544 ft | 278 kts | 56° |
| 2026-05-08 03:40 | 37.79036 | -87.25939 | 5113 ft | 277 kts | 56° |
| 2026-05-08 03:41 | 37.80066 | -87.23890 | 5017 ft | 277 kts | 56° |
| 2026-05-08 03:41 | 37.81105 | -87.21833 | 5026 ft | 278 kts | 56° |
| 2026-05-08 03:41 | 37.82351 | -87.19989 | 5024 ft | 275 kts | 34° |
| 2026-05-08 03:41 | 37.84026 | -87.19093 | 5024 ft | 251 kts | 4° |
| 2026-05-08 03:42 | 37.85671 | -87.19234 | 5021 ft | 228 kts | 346° |
| 2026-05-08 03:42 | 37.87167 | -87.19620 | 5019 ft | 211 kts | 344° |
| 2026-05-08 03:42 | 37.88575 | -87.20030 | 4874 ft | 204 kts | 338° |
| 2026-05-08 03:42 | 37.89874 | -87.20723 | 4591 ft | 203 kts | 339° |
| 2026-05-08 03:43 | 37.91296 | -87.20720 | 4515 ft | 213 kts | 14° |
| 2026-05-08 03:43 | 37.92540 | -87.19688 | 4408 ft | 219 kts | 49° |
| 2026-05-08 03:43 | 37.93058 | -87.17922 | 4159 ft | 218 kts | 95° |
| 2026-05-08 03:43 | 37.92503 | -87.16247 | 3898 ft | 209 kts | 140° |
| 2026-05-08 03:44 | 37.91197 | -87.15563 | 3638 ft | 203 kts | 180° |
| 2026-05-08 03:44 | 37.89818 | -87.15738 | 3365 ft | 201 kts | 193° |
| 2026-05-08 03:44 | 37.88448 | -87.16050 | 3094 ft | 199 kts | 193° |
| 2026-05-08 03:44 | 37.87089 | -87.16367 | 2831 ft | 197 kts | 193° |
| 2026-05-08 03:45 | 37.85776 | -87.16675 | 2587 ft | 189 kts | 192° |
| 2026-05-08 03:45 | 37.84521 | -87.16969 | 2326 ft | 177 kts | 192° |
| 2026-05-08 03:45 | 37.83346 | -87.17205 | 2093 ft | 165 kts | 185° |
| 2026-05-08 03:45 | 37.82243 | -87.17156 | 1888 ft | 153 kts | 180° |
| 2026-05-08 03:46 | 37.81216 | -87.17101 | 1687 ft | 143 kts | 180° |
| 2026-05-08 03:46 | 37.80260 | -87.17050 | 1497 ft | 131 kts | 180° |
| 2026-05-08 03:46 | 37.79366 | -87.17003 | 1325 ft | 126 kts | 179° |
| 2026-05-08 03:46 | 37.78495 | -87.16959 | 1156 ft | 125 kts | 179° |
| 2026-05-08 03:47 | 37.77628 | -87.16912 | 997 ft | 125 kts | 178° |
| 2026-05-08 03:47 | 37.76759 | -87.16867 | 830 ft | 125 kts | 178° |
| 2026-05-08 03:47 | 37.75892 | -87.16822 | 670 ft | 125 kts | 178° |
| 2026-05-08 03:47 | 37.75023 | -87.16773 | 483 ft | 124 kts | 178° |
| 2026-05-08 03:48 | 37.74186 | -87.16744 | 413 ft | 109 kts | 179° |
| 2026-05-08 03:48 | 37.73603 | -87.16715 | 409 ft | 59 kts | 178° |
| 2026-05-08 03:48 | 37.73285 | -87.16697 | 409 ft | 53 kts | 179° |
| 2026-05-08 03:48 | 37.73139 | -87.16616 | 409 ft | 13 kts | 52° |
| 2026-05-08 03:49 | 37.73224 | -87.16522 | 409 ft | 19 kts | 12° |
| 2026-05-08 03:49 | 37.73307 | -87.16520 | 410 ft | 10 kts | 359° |
| 2026-05-08 03:49 | 37.73379 | -87.16522 | 410 ft | 10 kts | 358° |
| 2026-05-08 03:49 | 37.73454 | -87.16524 | 410 ft | 11 kts | 360° |
| 2026-05-08 03:50 | 37.73534 | -87.16525 | 411 ft | 12 kts | 0° |
| 2026-05-08 03:50 | 37.73616 | -87.16528 | 411 ft | 12 kts | 358° |
| 2026-05-08 03:50 | 37.73706 | -87.16534 | 411 ft | 13 kts | 354° |
| 2026-05-08 03:50 | 37.73801 | -87.16542 | 412 ft | 15 kts | 357° |
| 2026-05-08 03:51 | 37.73911 | -87.16547 | 413 ft | 11 kts | 357° |
| 2026-05-08 03:51 | 37.74011 | -87.16550 | 413 ft | 20 kts | 355° |
| 2026-05-08 03:51 | 37.74166 | -87.16560 | 413 ft | 21 kts | 357° |
| 2026-05-08 03:51 | 37.74300 | -87.16533 | 413 ft | 19 kts | 24° |
| 2026-05-08 03:52 | 37.74433 | -87.16506 | 414 ft | 18 kts | 5° |
| 2026-05-08 03:52 | 37.74521 | -87.16409 | 413 ft | 17 kts | 32° |
| 2026-05-08 03:52 | 37.74616 | -87.16385 | 414 ft | 9 kts | 333° |
| 2026-05-08 03:52 | 37.74618 | -87.16386 | 414 ft | 0 kts | 333° |